Time;durP1;ratioP1;P1;durP2;ratioP2;P2;SDS_P1;SDS_P2;PMS_P1;PMS_P2;Temp;Humidity;BMP_temperature;BMP_pressure;BME280_temperature;BME280_humidity;BME280_pressure;Samples;Min_cycle;Max_cycle;Signal;HPM_P1;HPM_P2
2021/10/04 00:01:40;;;;;;;1.87;0.80;;;;;;;;;;5059116;28;20489;-72
2021/10/04 00:04:08;;;;;;;1.67;0.70;;;;;;;;;;5058597;28;20549;-72
2021/10/04 00:06:36;;;;;;;2.07;1.17;;;;;;;;;;5059351;28;20541;-72
2021/10/04 00:09:04;;;;;;;1.90;0.60;;;;;;;;;;5059704;28;20930;-72
2021/10/04 00:11:31;;;;;;;7.43;0.87;;;;;;;;;;5058368;28;20464;-72
2021/10/04 00:13:59;;;;;;;2.37;0.90;;;;;;;;;;5059490;28;20523;-72
2021/10/04 00:16:27;;;;;;;2.07;0.70;;;;;;;;;;5058704;28;20547;-74
2021/10/04 00:18:56;;;;;;;1.53;0.80;;;;;;;;;;5058198;28;21037;-72
2021/10/04 00:21:24;;;;;;;2.03;0.70;;;;;;;;;;5058363;28;20457;-72
2021/10/04 00:23:52;;;;;;;3.43;1.10;;;;;;;;;;5058557;28;20833;-72
2021/10/04 00:26:20;;;;;;;2.57;0.87;;;;;;;;;;5072055;28;20736;-72
2021/10/04 00:28:48;;;;;;;2.07;0.83;;;;;;;;;;5077607;28;20841;-72
2021/10/04 00:31:17;;;;;;;1.40;0.70;;;;;;;;;;5077362;28;20455;-72
2021/10/04 00:33:44;;;;;;;2.20;0.60;;;;;;;;;;5077721;28;20463;-72
2021/10/04 00:36:13;;;;;;;1.50;0.57;;;;;;;;;;5076901;28;20441;-72
2021/10/04 00:38:41;;;;;;;1.63;0.70;;;;;;;;;;5078949;28;20547;-71
2021/10/04 00:41:09;;;;;;;4.10;1.03;;;;;;;;;;5078286;28;20892;-71
2021/10/04 00:43:37;;;;;;;1.30;0.50;;;;;;;;;;5078140;28;20535;-72
2021/10/04 00:46:05;;;;;;;1.60;0.70;;;;;;;;;;5078208;28;20501;-71
2021/10/04 00:48:33;;;;;;;1.43;0.80;;;;;;;;;;5078745;28;20461;-72
2021/10/04 00:51:01;;;;;;;1.40;0.60;;;;;;;;;;5077524;28;20449;-71
2021/10/04 00:53:30;;;;;;;1.50;0.67;;;;;;;;;;5078771;28;20453;-71
2021/10/04 00:55:58;;;;;;;2.00;0.80;;;;;;;;;;5076750;28;20860;-71
2021/10/04 00:58:26;;;;;;;1.40;0.50;;;;;;;;;;5078195;28;20530;-71
2021/10/04 01:00:54;;;;;;;2.07;0.70;;;;;;;;;;5077337;28;20459;-71
2021/10/04 01:03:23;;;;;;;2.77;0.80;;;;;;;;;;5077161;28;20488;-71
2021/10/04 01:05:51;;;;;;;1.73;0.80;;;;;;;;;;5077864;28;20758;-71
2021/10/04 01:08:19;;;;;;;3.00;0.80;;;;;;;;;;5076874;28;20540;-71
2021/10/04 01:10:48;;;;;;;1.87;0.70;;;;;;;;;;5078278;28;20463;-72
2021/10/04 01:13:16;;;;;;;2.53;1.10;;;;;;;;;;5077668;28;20805;-72
2021/10/04 01:15:44;;;;;;;3.33;0.77;;;;;;;;;;5077104;28;20463;-72
2021/10/04 01:18:12;;;;;;;1.27;0.60;;;;;;;;;;5077766;28;20464;-72
2021/10/04 01:20:42;;;;;;;1.90;0.77;;;;;;;;;;5077143;28;20879;-72
2021/10/04 01:23:10;;;;;;;2.13;0.70;;;;;;;;;;5076536;28;20488;-72
2021/10/04 01:25:38;;;;;;;1.40;0.60;;;;;;;;;;5077203;28;20461;-72
2021/10/04 01:28:06;;;;;;;1.47;0.70;;;;;;;;;;5077076;28;20469;-72
2021/10/04 01:30:35;;;;;;;1.90;0.60;;;;;;;;;;5077039;28;20779;-72
2021/10/04 01:33:03;;;;;;;2.10;0.90;;;;;;;;;;5077084;28;20452;-72
2021/10/04 01:35:31;;;;;;;2.30;1.03;;;;;;;;;;5076981;28;20539;-72
2021/10/04 01:38:04;;;;;;;2.03;0.90;;;;;;;;;;5076766;28;20543;-72
2021/10/04 01:40:36;;;;;;;2.03;0.80;;;;;;;;;;5076537;28;20448;-72
2021/10/04 01:43:03;;;;;;;2.80;0.83;;;;;;;;;;5076643;28;21019;-72
2021/10/04 01:45:32;;;;;;;2.10;0.77;;;;;;;;;;5076903;28;20486;-72
2021/10/04 01:48:00;;;;;;;1.60;0.60;;;;;;;;;;5075950;28;20840;-72
2021/10/04 01:50:28;;;;;;;2.57;0.70;;;;;;;;;;5076624;28;20457;-72
2021/10/04 01:52:57;;;;;;;1.50;0.70;;;;;;;;;;5076654;28;21265;-72
2021/10/04 01:55:26;;;;;;;2.37;0.67;;;;;;;;;;5076836;28;20887;-72
2021/10/04 01:57:54;;;;;;;2.20;0.70;;;;;;;;;;5075840;28;20469;-72
2021/10/04 02:00:22;;;;;;;1.90;0.70;;;;;;;;;;5076215;28;20448;-72
2021/10/04 02:02:51;;;;;;;1.90;0.80;;;;;;;;;;5076360;28;20926;-72
2021/10/04 02:05:22;;;;;;;3.00;2.20;;;;;;;;;;5077135;28;20779;-72
2021/10/04 02:07:50;;;;;;;1.83;0.87;;;;;;;;;;5076248;28;20463;-72
2021/10/04 02:10:19;;;;;;;3.40;1.13;;;;;;;;;;5077001;28;20748;-72
2021/10/04 02:12:49;;;;;;;1.23;0.60;;;;;;;;;;5077515;28;20453;-72
2021/10/04 02:15:17;;;;;;;2.80;1.00;;;;;;;;;;5076362;28;20787;-72
2021/10/04 02:17:45;;;;;;;2.40;0.70;;;;;;;;;;5077923;28;20448;-72
2021/10/04 02:20:14;;;;;;;1.20;0.70;;;;;;;;;;5076520;28;20547;-71
2021/10/04 02:22:42;;;;;;;2.93;1.03;;;;;;;;;;5076945;28;20592;-70
2021/10/04 02:25:10;;;;;;;2.03;0.90;;;;;;;;;;5076089;28;20445;-72
2021/10/04 02:27:39;;;;;;;1.70;1.00;;;;;;;;;;5078519;28;20460;-71
2021/10/04 02:30:10;;;;;;;1.70;0.80;;;;;;;;;;5076650;28;20449;-72
2021/10/04 02:32:38;;;;;;;2.33;0.70;;;;;;;;;;5076156;28;20445;-72
2021/10/04 02:35:07;;;;;;;2.70;0.63;;;;;;;;;;5078085;28;20899;-71
2021/10/04 02:37:36;;;;;;;1.80;0.80;;;;;;;;;;5076375;28;20444;-71
2021/10/04 02:40:04;;;;;;;1.60;0.83;;;;;;;;;;5076241;28;20907;-71
2021/10/04 02:42:32;;;;;;;1.53;0.90;;;;;;;;;;5076696;28;20500;-71
2021/10/04 02:45:00;;;;;;;2.13;0.70;;;;;;;;;;5074773;28;20555;-71
2021/10/04 02:47:29;;;;;;;2.77;0.90;;;;;;;;;;5075215;28;20463;-71
2021/10/04 02:49:57;;;;;;;2.00;1.00;;;;;;;;;;5075993;28;20702;-71
2021/10/04 02:52:25;;;;;;;1.70;0.97;;;;;;;;;;5075978;28;20865;-71
2021/10/04 02:54:53;;;;;;;1.60;0.90;;;;;;;;;;5075018;28;20540;-71
2021/10/04 02:57:21;;;;;;;2.60;0.87;;;;;;;;;;5075619;28;20705;-71
2021/10/04 02:59:49;;;;;;;2.43;1.00;;;;;;;;;;5076361;28;20555;-71
2021/10/04 03:02:17;;;;;;;3.63;1.00;;;;;;;;;;5075512;28;20448;-71
2021/10/04 03:04:46;;;;;;;3.73;1.03;;;;;;;;;;5076225;28;20464;-71
2021/10/04 03:07:14;;;;;;;5.60;1.30;;;;;;;;;;5075032;28;20932;-71
2021/10/04 03:09:42;;;;;;;1.63;0.90;;;;;;;;;;5075820;28;20457;-71
2021/10/04 03:12:10;;;;;;;2.47;1.30;;;;;;;;;;5076152;28;20463;-71
2021/10/04 03:14:38;;;;;;;2.40;1.07;;;;;;;;;;5075621;28;20456;-71
2021/10/04 03:17:06;;;;;;;3.57;0.70;;;;;;;;;;5075813;28;20460;-71
2021/10/04 03:19:34;;;;;;;2.80;0.93;;;;;;;;;;5076518;28;20460;-71
2021/10/04 03:22:03;;;;;;;1.83;0.77;;;;;;;;;;5075212;28;20460;-71
2021/10/04 03:24:32;;;;;;;2.40;0.90;;;;;;;;;;5075914;28;20511;-71
2021/10/04 03:27:00;;;;;;;4.83;1.30;;;;;;;;;;5078823;28;20461;-71
2021/10/04 03:29:28;;;;;;;1.50;0.90;;;;;;;;;;5078925;28;20475;-71
2021/10/04 03:31:55;;;;;;;2.40;0.90;;;;;;;;;;5079495;28;20486;-71
2021/10/04 03:34:24;;;;;;;3.23;1.60;;;;;;;;;;5079410;28;20579;-70
2021/10/04 03:36:53;;;;;;;2.60;1.37;;;;;;;;;;5081211;28;20439;-70
2021/10/04 03:39:22;;;;;;;3.20;1.10;;;;;;;;;;5099395;28;20459;-70
2021/10/04 03:41:50;;;;;;;2.93;1.03;;;;;;;;;;5083626;28;20440;-70
2021/10/04 03:44:18;;;;;;;1.70;1.00;;;;;;;;;;5078749;28;20523;-70
2021/10/04 03:46:45;;;;;;;2.40;1.00;;;;;;;;;;5079447;28;20813;-71
2021/10/04 03:49:13;;;;;;;5.97;3.33;;;;;;;;;;5078768;28;20468;-71
2021/10/04 03:51:41;;;;;;;2.40;1.17;;;;;;;;;;5080063;28;20548;-70
2021/10/04 03:54:10;;;;;;;2.20;1.10;;;;;;;;;;5078689;28;20463;-72
2021/10/04 03:56:39;;;;;;;1.90;1.20;;;;;;;;;;5079959;28;20471;-71
2021/10/04 03:59:07;;;;;;;1.73;0.90;;;;;;;;;;5080051;28;20491;-71
2021/10/04 04:01:37;;;;;;;1.70;0.87;;;;;;;;;;5078578;28;20453;-71
2021/10/04 04:04:05;;;;;;;3.73;1.20;;;;;;;;;;5079958;28;20488;-70
2021/10/04 04:06:33;;;;;;;2.20;1.20;;;;;;;;;;5079218;28;20456;-71
2021/10/04 04:09:00;;;;;;;3.10;1.00;;;;;;;;;;5079052;28;20525;-72
2021/10/04 04:11:28;;;;;;;6.10;1.30;;;;;;;;;;5079023;28;20455;-71
2021/10/04 04:13:58;;;;;;;3.07;1.13;;;;;;;;;;5078750;28;20506;-71
2021/10/04 04:16:26;;;;;;;2.53;1.40;;;;;;;;;;5078713;28;20483;-71
2021/10/04 04:18:54;;;;;;;3.47;1.80;;;;;;;;;;5078942;28;20452;-70
2021/10/04 04:21:21;;;;;;;4.00;1.70;;;;;;;;;;5078402;28;20513;-71
2021/10/04 04:23:53;;;;;;;2.33;1.37;;;;;;;;;;5077422;28;21006;-71
2021/10/04 04:26:21;;;;;;;2.63;1.60;;;;;;;;;;5076928;28;20467;-71
2021/10/04 04:28:50;;;;;;;1.83;0.97;;;;;;;;;;5071753;28;20926;-71
2021/10/04 04:31:20;;;;;;;2.50;1.30;;;;;;;;;;5074689;28;20479;-71
2021/10/04 04:33:48;;;;;;;2.90;1.30;;;;;;;;;;5077535;28;20470;-71
2021/10/04 04:36:17;;;;;;;5.13;1.57;;;;;;;;;;5077810;28;20448;-72
2021/10/04 04:38:45;;;;;;;2.73;1.10;;;;;;;;;;5076959;28;20495;-71
2021/10/04 04:41:13;;;;;;;1.80;1.00;;;;;;;;;;5076399;28;20463;-70
2021/10/04 04:43:42;;;;;;;2.20;1.40;;;;;;;;;;5078016;28;20487;-70
2021/10/04 04:46:10;;;;;;;7.97;2.60;;;;;;;;;;5077709;28;20478;-70
2021/10/04 04:48:39;;;;;;;2.93;1.20;;;;;;;;;;5078331;28;20444;-71
2021/10/04 04:51:08;;;;;;;2.80;1.60;;;;;;;;;;5077570;28;20884;-72
2021/10/04 04:53:35;;;;;;;2.20;1.30;;;;;;;;;;5076674;28;20475;-72
2021/10/04 04:56:04;;;;;;;4.13;1.20;;;;;;;;;;5076945;28;20468;-72
2021/10/04 04:58:32;;;;;;;3.03;1.13;;;;;;;;;;5076313;28;20479;-70
2021/10/04 05:01:03;;;;;;;4.07;1.20;;;;;;;;;;5076458;28;20460;-70
2021/10/04 05:03:31;;;;;;;3.90;1.87;;;;;;;;;;5076282;28;20483;-70
2021/10/04 05:06:01;;;;;;;2.23;1.20;;;;;;;;;;5076618;28;20831;-71
2021/10/04 05:08:38;;;;;;;2.77;1.50;;;;;;;;;;5076041;28;20447;-71
2021/10/04 05:11:07;;;;;;;2.27;1.30;;;;;;;;;;5072169;28;20520;-71
2021/10/04 05:13:35;;;;;;;2.97;1.23;;;;;;;;;;5073141;28;20467;-71
2021/10/04 05:16:02;;;;;;;3.40;1.70;;;;;;;;;;5074948;28;20464;-72
2021/10/04 05:18:30;;;;;;;2.70;1.40;;;;;;;;;;5075876;28;20441;-70
2021/10/04 05:21:03;;;;;;;6.57;2.37;;;;;;;;;;5075733;28;21009;-70
2021/10/04 05:23:32;;;;;;;2.27;1.03;;;;;;;;;;5074789;28;20480;-70
2021/10/04 05:26:00;;;;;;;3.57;1.60;;;;;;;;;;5074909;28;20468;-71
2021/10/04 05:28:28;;;;;;;3.50;1.60;;;;;;;;;;5070868;28;20526;-71
2021/10/04 05:30:56;;;;;;;4.33;1.47;;;;;;;;;;5072046;28;20885;-71
2021/10/04 05:33:24;;;;;;;4.20;1.40;;;;;;;;;;5074450;28;20749;-71
2021/10/04 05:35:52;;;;;;;8.47;1.87;;;;;;;;;;5074806;28;20457;-72
2021/10/04 05:38:21;;;;;;;2.83;1.40;;;;;;;;;;5073304;28;20449;-71
2021/10/04 05:40:49;;;;;;;3.90;1.50;;;;;;;;;;5072144;28;20461;-71
2021/10/04 05:43:17;;;;;;;3.47;1.60;;;;;;;;;;5073385;28;20480;-71
2021/10/04 05:45:45;;;;;;;3.00;1.90;;;;;;;;;;5073981;28;20467;-71
2021/10/04 05:48:13;;;;;;;2.60;1.50;;;;;;;;;;5073774;28;20521;-71
2021/10/04 05:50:40;;;;;;;3.03;1.93;;;;;;;;;;5072975;28;20456;-70
2021/10/04 05:53:10;;;;;;;2.97;1.40;;;;;;;;;;5073279;28;20513;-71
2021/10/04 05:55:42;;;;;;;2.57;1.07;;;;;;;;;;5073109;28;20987;-71
2021/10/04 05:58:10;;;;;;;3.80;1.67;;;;;;;;;;5066348;28;20543;-71
2021/10/04 06:00:40;;;;;;;5.27;3.57;;;;;;;;;;5065614;28;20456;-71
2021/10/04 06:03:08;;;;;;;5.20;1.70;;;;;;;;;;5074860;28;20532;-70
2021/10/04 06:05:36;;;;;;;4.40;1.50;;;;;;;;;;5074303;28;20733;-70
2021/10/04 06:08:05;;;;;;;6.90;2.13;;;;;;;;;;5071281;28;20444;-71
2021/10/04 06:10:33;;;;;;;2.30;1.73;;;;;;;;;;5068865;28;20470;-71
2021/10/04 06:13:03;;;;;;;1.90;1.37;;;;;;;;;;5059653;28;20445;-70
2021/10/04 06:15:32;;;;;;;4.63;2.17;;;;;;;;;;5073362;28;20893;-71
2021/10/04 06:18:01;;;;;;;2.57;1.03;;;;;;;;;;5074426;28;21143;-70
2021/10/04 06:20:29;;;;;;;3.43;2.13;;;;;;;;;;5082799;28;20463;-71
2021/10/04 06:22:57;;;;;;;5.10;1.77;;;;;;;;;;5094512;28;20467;-71
2021/10/04 06:25:25;;;;;;;2.73;1.43;;;;;;;;;;5094665;28;20483;-70
2021/10/04 06:27:59;;;;;;;4.37;2.67;;;;;;;;;;5094986;28;20844;-69
2021/10/04 06:30:29;;;;;;;4.33;1.90;;;;;;;;;;5055085;28;20561;-70
2021/10/04 06:32:57;;;;;;;3.90;1.47;;;;;;;;;;5066855;28;20452;-70
2021/10/04 06:35:25;;;;;;;3.53;2.23;;;;;;;;;;5073434;28;20551;-71
2021/10/04 06:37:53;;;;;;;3.70;2.10;;;;;;;;;;5074791;28;20833;-69
2021/10/04 06:40:21;;;;;;;4.70;2.23;;;;;;;;;;5074598;28;20463;-70
2021/10/04 06:42:50;;;;;;;2.67;1.80;;;;;;;;;;5074133;28;20449;-69
2021/10/04 06:45:19;;;;;;;4.00;1.53;;;;;;;;;;5074048;28;20614;-70
2021/10/04 06:47:49;;;;;;;5.53;2.30;;;;;;;;;;5075148;28;20463;-71
2021/10/04 06:50:20;;;;;;;6.70;1.40;;;;;;;;;;5094032;28;20456;-69
2021/10/04 06:52:52;;;;;;;7.03;3.70;;;;;;;;;;5094791;28;20898;-71
2021/10/04 06:55:45;;;;;;;3.33;1.83;;;;;;;;;;5090695;28;20471;-70
2021/10/04 06:58:13;;;;;;;4.73;2.07;;;;;;;;;;5092928;28;20554;-70
2021/10/04 07:00:45;;;;;;;4.30;1.53;;;;;;;;;;5094465;28;20428;-70
2021/10/04 07:03:19;;;;;;;3.23;1.73;;;;;;;;;;5085375;28;20468;-72
2021/10/04 07:05:51;;;;;;;3.07;1.50;;;;;;;;;;5076645;28;20583;-71
2021/10/04 07:08:24;;;;;;;3.13;1.73;;;;;;;;;;5077449;28;20461;-71
2021/10/04 07:10:54;;;;;;;3.10;1.57;;;;;;;;;;5073859;28;20526;-72
2021/10/04 07:13:27;;;;;;;11.23;6.77;;;;;;;;;;5072162;28;20887;-71
2021/10/04 07:15:57;;;;;;;2.57;1.70;;;;;;;;;;5077120;28;20463;-71
2021/10/04 07:18:26;;;;;;;4.53;1.90;;;;;;;;;;5076323;28;20535;-71
2021/10/04 07:20:54;;;;;;;3.70;1.73;;;;;;;;;;5077223;28;20452;-70
2021/10/04 07:23:23;;;;;;;4.47;2.57;;;;;;;;;;5076004;28;20468;-69
2021/10/04 07:25:51;;;;;;;4.80;2.37;;;;;;;;;;5074942;28;20553;-71
2021/10/04 07:28:19;;;;;;;4.30;1.60;;;;;;;;;;5076706;28;20456;-69
2021/10/04 07:30:55;;;;;;;6.23;2.13;;;;;;;;;;5075916;28;20933;-69
2021/10/04 07:33:27;;;;;;;3.80;2.07;;;;;;;;;;5076058;28;20580;-70
2021/10/04 07:35:57;;;;;;;3.07;1.60;;;;;;;;;;5076925;28;20463;-70
2021/10/04 07:38:26;;;;;;;7.20;1.87;;;;;;;;;;5062369;28;20457;-70
2021/10/04 07:40:54;;;;;;;4.17;2.50;;;;;;;;;;5065725;28;20551;-70
2021/10/04 07:43:22;;;;;;;11.73;4.13;;;;;;;;;;5076727;28;20516;-70
2021/10/04 07:45:51;;;;;;;2.83;1.60;;;;;;;;;;5076516;28;20794;-70
2021/10/04 07:48:19;;;;;;;11.00;2.90;;;;;;;;;;5076424;28;20544;-70
2021/10/04 07:50:47;;;;;;;4.63;1.77;;;;;;;;;;5075487;28;20573;-71
2021/10/04 07:53:16;;;;;;;3.37;2.37;;;;;;;;;;5076397;28;20452;-70
2021/10/04 07:55:47;;;;;;;3.60;2.07;;;;;;;;;;5076567;28;20449;-71
2021/10/04 07:58:15;;;;;;;3.27;1.77;;;;;;;;;;5056035;28;20484;-70
2021/10/04 08:00:43;;;;;;;3.83;1.53;;;;;;;;;;5056553;28;20461;-70
2021/10/04 08:03:11;;;;;;;4.63;2.50;;;;;;;;;;5054567;28;20852;-71
2021/10/04 08:05:39;;;;;;;5.33;2.20;;;;;;;;;;5069822;28;20482;-70
2021/10/04 08:08:07;;;;;;;5.03;1.60;;;;;;;;;;5075938;28;20448;-71
2021/10/04 08:10:37;;;;;;;9.93;3.43;;;;;;;;;;5075728;28;20465;-72
2021/10/04 08:13:09;;;;;;;4.10;1.63;;;;;;;;;;5072514;28;20485;-70
2021/10/04 08:15:41;;;;;;;5.30;2.27;;;;;;;;;;5074851;28;20453;-70
2021/10/04 08:18:10;;;;;;;1.60;1.03;;;;;;;;;;5076535;28;20476;-71
2021/10/04 08:20:39;;;;;;;7.67;1.70;;;;;;;;;;5070170;28;20550;-70
2021/10/04 08:23:09;;;;;;;2.90;1.90;;;;;;;;;;5074583;28;20483;-70
2021/10/04 08:25:42;;;;;;;3.43;1.67;;;;;;;;;;5069191;28;20534;-70
2021/10/04 08:28:12;;;;;;;3.60;1.33;;;;;;;;;;5075441;28;20468;-70
2021/10/04 08:30:41;;;;;;;3.10;1.30;;;;;;;;;;5090469;28;20531;-71
2021/10/04 08:33:12;;;;;;;2.20;1.50;;;;;;;;;;5096269;28;20451;-71
2021/10/04 08:35:40;;;;;;;3.27;1.60;;;;;;;;;;5096342;28;20447;-70
2021/10/04 08:38:10;;;;;;;3.73;1.50;;;;;;;;;;5086794;28;20481;-71
2021/10/04 08:40:40;;;;;;;2.73;1.37;;;;;;;;;;5074848;28;20452;-70
2021/10/04 08:43:13;;;;;;;3.77;1.80;;;;;;;;;;5074052;28;20518;-69
2021/10/04 08:48:26;;;;;;;2.17;1.30;;;;;;;;;;5070565;28;20451;-70
2021/10/04 08:50:58;;;;;;;3.50;1.60;;;;;;;;;;5076628;28;20464;-71
2021/10/04 08:53:29;;;;;;;3.30;1.80;;;;;;;;;;5075679;28;20526;-70
2021/10/04 08:56:00;;;;;;;3.30;2.20;;;;;;;;;;5074235;28;20509;-71
2021/10/04 08:58:32;;;;;;;3.70;1.47;;;;;;;;;;5058531;28;20452;-70
2021/10/04 09:01:02;;;;;;;5.10;3.07;;;;;;;;;;5074299;28;20475;-70
2021/10/04 09:03:57;;;;;;;3.87;1.80;;;;;;;;;;5075399;28;20459;-70
2021/10/04 09:06:30;;;;;;;7.23;2.13;;;;;;;;;;5069191;28;20877;-71
2021/10/04 09:09:03;;;;;;;2.63;1.80;;;;;;;;;;5075453;28;20917;-71
2021/10/04 09:11:38;;;;;;;5.20;2.00;;;;;;;;;;5075810;28;20461;-71
2021/10/04 09:14:11;;;;;;;4.13;1.73;;;;;;;;;;5069082;28;20486;-69
2021/10/04 09:16:55;;;;;;;4.13;2.67;;;;;;;;;;5070953;28;20518;-70
2021/10/04 09:19:24;;;;;;;3.27;1.70;;;;;;;;;;5073860;28;20472;-70
2021/10/04 09:22:18;;;;;;;4.23;1.90;;;;;;;;;;5078608;28;20445;-71
2021/10/04 09:25:06;;;;;;;2.63;1.47;;;;;;;;;;5069716;28;20538;-70
2021/10/04 09:28:12;;;;;;;3.00;1.30;;;;;;;;;;5080663;28;20457;-72
2021/10/04 09:30:54;;;;;;;5.50;2.23;;;;;;;;;;5095530;28;20514;-71
2021/10/04 09:33:38;;;;;;;8.80;1.90;;;;;;;;;;5099222;28;20477;-71
2021/10/04 09:36:28;;;;;;;3.77;1.60;;;;;;;;;;5099979;28;20449;-71
2021/10/04 09:39:33;;;;;;;2.43;1.00;;;;;;;;;;5098829;28;20454;-71
2021/10/04 09:42:06;;;;;;;1.50;0.80;;;;;;;;;;5098794;28;20467;-71
2021/10/04 09:44:47;;;;;;;3.30;1.90;;;;;;;;;;5080671;28;20472;-71
2021/10/04 09:47:16;;;;;;;3.20;1.73;;;;;;;;;;5054389;28;20449;-70
2021/10/04 09:50:05;;;;;;;7.77;4.97;;;;;;;;;;5057300;28;20457;-70
2021/10/04 09:52:49;;;;;;;2.90;1.50;;;;;;;;;;5064175;28;20763;-70
2021/10/04 09:55:19;;;;;;;4.70;3.00;;;;;;;;;;5059632;28;20729;-70
2021/10/04 09:58:03;;;;;;;3.37;1.80;;;;;;;;;;5061730;28;20506;-70
2021/10/04 10:00:36;;;;;;;5.27;2.03;;;;;;;;;;5077023;28;20528;-70
2021/10/04 10:03:06;;;;;;;2.87;1.40;;;;;;;;;;5054838;28;20451;-70
2021/10/04 10:05:35;;;;;;;4.13;1.87;;;;;;;;;;5054570;28;20991;-72
2021/10/04 10:08:03;;;;;;;5.50;3.10;;;;;;;;;;5068342;28;20509;-71
2021/10/04 10:10:31;;;;;;;5.83;2.00;;;;;;;;;;5075943;28;20853;-71
2021/10/04 10:12:59;;;;;;;6.37;3.60;;;;;;;;;;5075633;28;20722;-71
2021/10/04 10:15:29;;;;;;;3.40;1.83;;;;;;;;;;5074058;28;20552;-73
2021/10/04 10:18:26;;;;;;;6.00;2.90;;;;;;;;;;5077273;28;20491;-70
2021/10/04 10:20:59;;;;;;;10.50;4.30;;;;;;;;;;5053650;28;20471;-70
2021/10/04 10:23:46;;;;;;;4.07;1.83;;;;;;;;;;5073426;28;20460;-70
2021/10/04 10:26:39;;;;;;;4.97;2.83;;;;;;;;;;5073394;28;20480;-71
2021/10/04 10:29:26;;;;;;;10.47;4.13;;;;;;;;;;5069002;28;20864;-69
2021/10/04 10:32:11;;;;;;;6.00;2.97;;;;;;;;;;5061774;28;20453;-69
2021/10/04 10:35:02;;;;;;;4.10;2.97;;;;;;;;;;5073819;28;20849;-71
2021/10/04 10:37:46;;;;;;;10.07;4.10;;;;;;;;;;5053318;28;20464;-70
2021/10/04 10:40:26;;;;;;;6.10;3.80;;;;;;;;;;5076949;28;20534;-71
2021/10/04 10:43:05;;;;;;;8.43;5.67;;;;;;;;;;5090601;28;20470;-70
2021/10/04 10:45:43;;;;;;;8.67;4.27;;;;;;;;;;5093439;28;20487;-70
2021/10/04 10:48:12;;;;;;;4.53;2.40;;;;;;;;;;5073764;28;20517;-72
2021/10/04 10:50:47;;;;;;;5.60;2.60;;;;;;;;;;5087450;28;20857;-71
2021/10/04 10:53:22;;;;;;;6.63;2.10;;;;;;;;;;5081548;28;20938;-69
2021/10/04 10:55:55;;;;;;;6.50;4.50;;;;;;;;;;5072971;28;20445;-72
2021/10/04 10:58:24;;;;;;;15.37;8.90;;;;;;;;;;5083558;28;20942;-71
2021/10/04 11:01:12;;;;;;;19.00;10.50;;;;;;;;;;5070248;28;20449;-70
2021/10/04 11:03:48;;;;;;;5.30;2.70;;;;;;;;;;5072519;28;20522;-72
2021/10/04 11:06:17;;;;;;;9.07;5.40;;;;;;;;;;5072201;28;20575;-71
2021/10/04 11:08:58;;;;;;;7.37;4.43;;;;;;;;;;5074036;28;20463;-72
2021/10/04 11:11:28;;;;;;;5.50;3.60;;;;;;;;;;5068606;28;20453;-70
2021/10/04 11:14:13;;;;;;;11.63;2.40;;;;;;;;;;5072738;28;20534;-72
2021/10/04 11:16:50;;;;;;;3.03;2.03;;;;;;;;;;5080824;28;20879;-70
2021/10/04 11:19:28;;;;;;;6.33;3.37;;;;;;;;;;5073126;28;20440;-70
2021/10/04 11:21:56;;;;;;;8.47;5.07;;;;;;;;;;5073754;28;20836;-69
2021/10/04 11:24:26;;;;;;;5.43;2.07;;;;;;;;;;5072638;28;20499;-71
2021/10/04 11:26:55;;;;;;;7.23;1.90;;;;;;;;;;5071153;28;20485;-70
2021/10/04 11:29:23;;;;;;;2.47;1.40;;;;;;;;;;5071807;28;20452;-70
2021/10/04 11:31:51;;;;;;;3.70;2.10;;;;;;;;;;5071387;28;20869;-71
2021/10/04 11:34:20;;;;;;;5.67;1.80;;;;;;;;;;5070702;28;20448;-71
2021/10/04 11:36:54;;;;;;;6.03;2.07;;;;;;;;;;5058503;28;20949;-73
2021/10/04 11:39:24;;;;;;;9.43;3.97;;;;;;;;;;5058759;28;20464;-73
2021/10/04 11:41:55;;;;;;;4.20;2.23;;;;;;;;;;5071812;28;20456;-71
2021/10/04 11:44:24;;;;;;;4.17;2.00;;;;;;;;;;5071962;28;20465;-71
2021/10/04 11:46:53;;;;;;;3.60;1.60;;;;;;;;;;5071169;28;21130;-69
2021/10/04 11:49:23;;;;;;;14.73;2.30;;;;;;;;;;5074721;28;20518;-71
2021/10/04 11:51:52;;;;;;;5.47;3.03;;;;;;;;;;5075813;28;20525;-71
2021/10/04 11:54:38;;;;;;;6.20;3.00;;;;;;;;;;5075562;28;20444;-70
2021/10/04 11:57:12;;;;;;;2.50;1.50;;;;;;;;;;5077263;28;20736;-70
2021/10/04 11:59:48;;;;;;;2.50;1.53;;;;;;;;;;5073886;28;20444;-71
2021/10/04 12:02:21;;;;;;;5.83;3.07;;;;;;;;;;5074870;28;20509;-71
2021/10/04 12:04:49;;;;;;;5.30;3.40;;;;;;;;;;5075825;28;20547;-71
2021/10/04 12:07:20;;;;;;;4.10;2.10;;;;;;;;;;5076852;28;20814;-71
2021/10/04 12:10:00;;;;;;;6.00;3.00;;;;;;;;;;5066932;28;20445;-72
2021/10/04 12:12:41;;;;;;;4.00;1.63;;;;;;;;;;5075061;28;20456;-71
2021/10/04 12:15:21;;;;;;;4.27;2.03;;;;;;;;;;5067125;28;20452;-72
2021/10/04 12:17:51;;;;;;;5.70;2.47;;;;;;;;;;5075650;28;20506;-70
2021/10/04 12:20:30;;;;;;;5.03;2.60;;;;;;;;;;5074617;28;20451;-71
2021/10/04 12:23:37;;;;;;;7.30;3.43;;;;;;;;;;5060711;28;20519;-71
2021/10/04 12:26:09;;;;;;;4.80;3.37;;;;;;;;;;5071555;28;20483;-71
2021/10/04 12:28:53;;;;;;;3.13;1.57;;;;;;;;;;5070388;28;20893;-70
2021/10/04 12:31:35;;;;;;;5.50;3.20;;;;;;;;;;5066392;28;20518;-71
2021/10/04 12:34:07;;;;;;;7.10;3.00;;;;;;;;;;5072642;28;20460;-71
2021/10/04 12:36:42;;;;;;;3.80;1.90;;;;;;;;;;5056719;28;20450;-70
2021/10/04 12:39:11;;;;;;;5.37;2.93;;;;;;;;;;5069199;28;20452;-71
2021/10/04 12:41:40;;;;;;;5.40;3.03;;;;;;;;;;5075345;28;20476;-70
2021/10/04 12:44:13;;;;;;;4.03;2.00;;;;;;;;;;5076748;28;20441;-70
2021/10/04 12:46:42;;;;;;;4.17;2.30;;;;;;;;;;5073100;28;20524;-70
2021/10/04 12:49:19;;;;;;;8.20;2.93;;;;;;;;;;5074400;28;20480;-70
2021/10/04 12:51:50;;;;;;;7.30;4.33;;;;;;;;;;5075431;28;20487;-71
2021/10/04 12:54:23;;;;;;;3.20;1.80;;;;;;;;;;5074400;28;20959;-69
2021/10/04 12:56:53;;;;;;;6.57;3.77;;;;;;;;;;5054385;28;20450;-70
2021/10/04 12:59:27;;;;;;;4.07;1.63;;;;;;;;;;5065844;28;20745;-70
2021/10/04 13:01:57;;;;;;;6.70;3.07;;;;;;;;;;5074023;28;20796;-70
2021/10/04 13:04:28;;;;;;;2.40;1.33;;;;;;;;;;5075544;28;20445;-70
2021/10/04 13:06:56;;;;;;;5.20;2.00;;;;;;;;;;5073552;28;20496;-70
2021/10/04 13:09:27;;;;;;;3.87;1.67;;;;;;;;;;5073939;28;20930;-70
2021/10/04 13:11:57;;;;;;;3.10;1.50;;;;;;;;;;5073331;28;20913;-71
2021/10/04 13:14:35;;;;;;;2.17;1.37;;;;;;;;;;5071355;28;20492;-71
2021/10/04 13:17:08;;;;;;;4.40;2.40;;;;;;;;;;5073325;28;20500;-71
2021/10/04 13:19:36;;;;;;;5.77;2.80;;;;;;;;;;5064851;28;20550;-71
2021/10/04 13:22:10;;;;;;;5.77;3.90;;;;;;;;;;5072812;28;20907;-70
2021/10/04 13:24:43;;;;;;;5.10;1.93;;;;;;;;;;5073260;28;20456;-70
2021/10/04 13:27:12;;;;;;;6.77;3.00;;;;;;;;;;5072062;28;20480;-70
2021/10/04 13:29:55;;;;;;;3.97;1.87;;;;;;;;;;5073642;28;20568;-72
2021/10/04 13:32:24;;;;;;;5.00;2.40;;;;;;;;;;5073146;28;20792;-70
2021/10/04 13:34:56;;;;;;;6.17;2.27;;;;;;;;;;5072662;28;20471;-70
2021/10/04 13:37:26;;;;;;;7.93;2.13;;;;;;;;;;5072662;28;20449;-69
2021/10/04 13:39:59;;;;;;;5.30;2.57;;;;;;;;;;5087165;28;20534;-69
2021/10/04 13:42:30;;;;;;;4.50;2.80;;;;;;;;;;5076619;28;20458;-69
2021/10/04 13:45:00;;;;;;;2.97;1.93;;;;;;;;;;5075978;28;20497;-70
2021/10/04 13:47:29;;;;;;;5.00;1.87;;;;;;;;;;5086621;28;20986;-69
2021/10/04 13:49:57;;;;;;;8.57;1.77;;;;;;;;;;5073054;28;20868;-70
2021/10/04 13:52:26;;;;;;;3.50;1.80;;;;;;;;;;5074557;28;20506;-70
2021/10/04 13:55:03;;;;;;;3.33;1.80;;;;;;;;;;5074540;28;20462;-69
2021/10/04 13:57:33;;;;;;;6.63;1.57;;;;;;;;;;5078618;28;20435;-70
2021/10/04 14:02:59;;;;;;;2.00;1.17;;;;;;;;;;5066841;28;20471;-72
2021/10/04 14:05:27;;;;;;;5.23;3.03;;;;;;;;;;5072163;28;20518;-72
2021/10/04 14:08:03;;;;;;;4.53;2.60;;;;;;;;;;5070235;28;20481;-72
2021/10/04 14:10:40;;;;;;;4.53;2.70;;;;;;;;;;5070329;28;20462;-72
2021/10/04 14:13:09;;;;;;;3.63;1.80;;;;;;;;;;5072501;28;20804;-73
2021/10/04 14:15:41;;;;;;;8.83;3.20;;;;;;;;;;5072198;28;20492;-71
2021/10/04 14:18:10;;;;;;;2.77;1.70;;;;;;;;;;5073099;28;20527;-72
2021/10/04 14:20:39;;;;;;;4.00;2.10;;;;;;;;;;5071902;28;20468;-72
2021/10/04 14:23:18;;;;;;;7.70;3.20;;;;;;;;;;5062903;28;20469;-72
2021/10/04 14:25:49;;;;;;;4.70;2.13;;;;;;;;;;5072594;28;20452;-71
2021/10/04 14:28:17;;;;;;;4.23;2.17;;;;;;;;;;5073327;28;20538;-75
2021/10/04 14:31:06;;;;;;;9.50;2.77;;;;;;;;;;5072512;28;21062;-71
2021/10/04 14:33:36;;;;;;;4.90;2.20;;;;;;;;;;5074026;28;20510;-70
2021/10/04 14:36:09;;;;;;;9.00;3.60;;;;;;;;;;5073683;28;20488;-71
2021/10/04 14:38:42;;;;;;;3.90;2.43;;;;;;;;;;5073483;28;20475;-73
2021/10/04 14:41:18;;;;;;;6.00;3.80;;;;;;;;;;5072789;28;20447;-70
2021/10/04 14:43:51;;;;;;;8.00;2.60;;;;;;;;;;5065753;28;20460;-71
2021/10/04 14:46:29;;;;;;;5.73;2.73;;;;;;;;;;5071192;28;20472;-72
2021/10/04 14:48:57;;;;;;;16.43;2.83;;;;;;;;;;5061938;28;20757;-72
2021/10/04 14:51:25;;;;;;;8.30;2.10;;;;;;;;;;5065653;28;20452;-72
2021/10/04 14:53:56;;;;;;;3.03;1.23;;;;;;;;;;5072008;28;20511;-72
2021/10/04 14:56:27;;;;;;;4.27;1.70;;;;;;;;;;5074110;28;20535;-73
2021/10/04 14:59:00;;;;;;;3.57;1.70;;;;;;;;;;5076063;28;20453;-71
2021/10/04 15:01:37;;;;;;;7.13;3.10;;;;;;;;;;5071192;28;20445;-72
2021/10/04 15:04:06;;;;;;;4.97;2.23;;;;;;;;;;5052720;28;20460;-72
2021/10/04 15:06:34;;;;;;;7.57;2.00;;;;;;;;;;5052385;28;20481;-72
2021/10/04 15:09:02;;;;;;;2.50;1.43;;;;;;;;;;5051722;28;20464;-72
2021/10/04 15:11:31;;;;;;;7.67;2.77;;;;;;;;;;5059849;28;20872;-72
2021/10/04 15:14:00;;;;;;;5.90;2.97;;;;;;;;;;5072693;28;20460;-72